• Join FlightAware (Why Join?)
  • Login
  • US Flag 
04:43AM EDT


 

Airport Tracker/Info


-or-


 

Live Flight TrackerFlight Track Log ✈ AAL2 ✈ 04-May-2010 ✈ KLAX - KJFK

Flight Track Log - Related Links

Times and Time Zones

All times are in EDT time to prevent confusion due to time zone crossing. See the AAL2 flight status page for this flight to view local times or setup timezone preferences in your user account.

Time Position Orientation Groundspeed Altitude Reporting Facility
EDT Latitude Longitude Course Direction KTS MPH feet Rate Location/Type
12:08PM 33.9333 -118.4500 253° West 179 206 1,900  Level Southern California TRACON
12:09PM 33.9181 -118.5090 209° Southwest 225 259 3,500 2,520 Climbing Los Angeles Center
12:10PM 33.8694 -118.5410 86° East 222 255 6,500 2,760 Climbing Los Angeles Center
12:11PM 33.8731 -118.4680 26° Northeast 136 157 9,100 2,160 Climbing Los Angeles Center
12:12PM 33.9364 -118.4300 55° Northeast 193 222 10,900 1,620 Climbing Los Angeles Center
12:13PM 33.9925 -118.3330 56° Northeast 269 310 12,400 2,040 Climbing Los Angeles Center
12:14PM 34.0528 -118.2250 54° Northeast 330 380 15,000 2,520 Climbing Los Angeles Center
12:15PM 34.1194 -118.1140 56° Northeast 380 437 17,500 2,100 Climbing Los Angeles Center
12:16PM 34.1708 -118.0220 56° Northeast 399 459 19,300 2,100 Climbing Los Angeles Center
12:17PM 34.2503 -117.8780 57° Northeast 417 480 21,800 2,220 Climbing Los Angeles Center
12:18PM 34.3167 -117.7560 52° Northeast 427 491 23,800 1,980 Climbing Los Angeles Center
12:19PM 34.3956 -117.6320 50° Northeast 445 512 25,800 1,800 Climbing Los Angeles Center
12:20PM 34.4783 -117.5120 50° Northeast 455 524 27,500 1,500 Climbing Los Angeles Center
12:21PM 34.5653 -117.3870 50° Northeast 470 541 28,900 1,380 Climbing Los Angeles Center
12:22PM 34.6522 -117.2600 50° Northeast 475 547 30,300 1,680 Climbing Los Angeles Center
12:23PM 34.7408 -117.1320 50° Northeast 485 558 32,300 1,680 Climbing Los Angeles Center
12:24PM 34.8294 -117.0040 50° Northeast 485 558 33,700 1,380 Climbing Los Angeles Center
12:25PM 34.9181 -116.8760 49° Northeast 490 564 35,100 1,320 Climbing Los Angeles Center
12:26PM 35.0064 -116.7500 50° Northeast 490 564 36,400 1,080 Climbing Los Angeles Center
12:27PM 35.0947 -116.6190 51° Northeast 490 564 37,300 780 Climbing Los Angeles Center
12:28PM 35.1828 -116.4870 49° Northeast 495 570 38,000 720 Climbing Los Angeles Center
12:29PM 35.2728 -116.3580 50° Northeast 495 570 38,800 420 Climbing Los Angeles Center
12:30PM 35.3628 -116.2280 50° Northeast 495 570 38,900  Climbing Los Angeles Center
12:31PM 35.4525 -116.0960 50° Northeast 495 570 38,900  Level Los Angeles Center
12:32PM 35.5400 -115.9680 49° Northeast 495 570 38,900  Level Los Angeles Center
12:33PM 35.6400 -115.8270 51° Northeast 490 564 38,900  Level Los Angeles Center
12:34PM 35.7086 -115.7220 49° Northeast 490 564 38,900  Level Los Angeles Center
12:35PM 35.8164 -115.5680 52° Northeast 495 570 38,900  Level Los Angeles Center
12:36PM 35.9033 -115.4320 51° Northeast 495 570 38,900  Level Los Angeles Center
12:37PM 35.9922 -115.2970 53° Northeast 495 570 39,000  Climbing Los Angeles Center
12:38PM 36.0767 -115.1600 55° Northeast 495 570 39,000 -60 Level Los Angeles Center
12:39PM 36.1589 -115.0150 55° Northeast 500 575 38,900 -60 Descending Los Angeles Center
12:40PM 36.2411 -114.8700 55° Northeast 505 581 38,900  Level Los Angeles Center
12:41PM 36.3208 -114.7270 55° Northeast 505 581 38,900  Level Los Angeles Center
12:42PM 36.4025 -114.5810 56° Northeast 505 581 39,000  Climbing Los Angeles Center
12:43PM 36.4981 -114.4040 55° Northeast 510 587 38,900 -60 Descending Los Angeles Center
12:44PM 36.5794 -114.2570 53° Northeast 515 593 38,900  Level Los Angeles Center
12:45PM 36.6567 -114.1280 57° Northeast 515 593 38,900  Level Los Angeles Center
12:46PM 36.7356 -113.9760 56° Northeast 515 593 38,900  Level Los Angeles Center
12:47PM 36.8242 -113.8100 57° Northeast 520 598 38,900  Level Los Angeles Center
12:48PM 36.9044 -113.6550 57° Northeast 520 598 38,900  Level Los Angeles Center
12:50PM 37.0297 -113.4130 56° Northeast 517 595 38,900  Level Salt Lake Center
12:51PM 37.1125 -113.2580 56° Northeast 517 595 38,900  Level Salt Lake Center
12:52PM 37.1950 -113.1020 56° Northeast 517 595 38,900  Level Salt Lake Center
12:53PM 37.2689 -112.9660 58° Northeast 522 601 38,900  Level Salt Lake Center
12:54PM 37.3467 -112.8120 57° Northeast 522 601 38,900  Level Salt Lake Center
12:55PM 37.4267 -112.6580 55° Northeast 522 601 38,900  Level Salt Lake Center
12:56PM 37.5083 -112.5090 57° Northeast 517 595 38,900  Level Salt Lake Center
12:57PM 37.5878 -112.3540 57° Northeast 517 595 38,900  Level Salt Lake Center
12:58PM 37.6650 -112.2060 58° Northeast 517 595 39,000  Climbing Salt Lake Center
12:59PM 37.7419 -112.0530 57° Northeast 517 595 38,900 -60 Descending Salt Lake Center
01:00PM 37.8206 -111.8990 57° Northeast 517 595 38,900  Level Salt Lake Center
01:01PM 37.8950 -111.7510 57° Northeast 517 595 39,000  Climbing Salt Lake Center
01:02PM 37.9714 -111.6020 57° Northeast 517 595 38,900  Descending Salt Lake Center
01:03PM 38.0558 -111.4350 57° Northeast 517 595 39,000  Climbing Salt Lake Center
01:04PM 38.1319 -111.2830 57° Northeast 512 589 38,900  Descending Salt Lake Center
01:05PM 38.2097 -111.1300 58° Northeast 518 596 39,000  Climbing Salt Lake Center
01:06PM 38.2850 -110.9740 57° Northeast 518 596 38,900 -60 Descending Salt Lake Center
01:07PM 38.3625 -110.8190 58° Northeast 518 596 38,900  Level Salt Lake Center
01:08PM 38.4375 -110.6680 59° Northeast 518 596 38,900  Level Salt Lake Center
01:09PM 38.5042 -110.5250 59° Northeast 518 596 39,000  Climbing Salt Lake Center
01:11PM 38.6569 -110.2010 59° Northeast 543 625 39,000  Level Denver Center
01:12PM 38.7397 -110.0240 59° Northeast 520 598 39,000  Level Denver Center
01:13PM 38.8133 -109.8650 59° Northeast 520 598 39,000 -60 Level Denver Center
01:14PM 38.8867 -109.7060 59° Northeast 520 598 38,900  Descending Denver Center
01:15PM 38.9556 -109.5600 60° Northeast 520 598 39,000  Climbing Denver Center
01:16PM 39.0350 -109.3840 59° Northeast 520 598 39,000 -60 Level Denver Center
01:17PM 39.1100 -109.2210 60° Northeast 526 605 38,900  Descending Denver Center
01:18PM 39.1761 -109.0740 59° Northeast 526 605 39,000  Climbing Denver Center
01:19PM 39.2506 -108.9110 60° Northeast 521 600 39,000 -60 Level Denver Center
01:20PM 39.3314 -108.7280 60° Northeast 521 600 38,900  Descending Denver Center
01:21PM 39.4033 -108.5670 60° Northeast 521 600 39,000  Climbing Denver Center
01:22PM 39.4686 -108.4180 60° Northeast 528 608 38,900 -60 Descending Denver Center
01:23PM 39.5486 -108.2370 60° Northeast 523 602 38,900  Level Denver Center
01:24PM 39.6200 -108.0740 61° Northeast 518 596 38,900  Level Denver Center
01:25PM 39.6844 -107.9250 60° Northeast 518 596 39,000  Climbing Denver Center
01:26PM 39.7639 -107.7430 61° Northeast 527 606 39,000 -60 Level Denver Center
01:27PM 39.8342 -107.5760 60° Northeast 521 600 38,900 -60 Descending Denver Center
01:28PM 39.9067 -107.4100 61° Northeast 521 600 38,900  Level Denver Center
01:29PM 39.9703 -107.2620 60° Northeast 518 596 39,000  Climbing Denver Center
01:30PM 40.0508 -107.0780 61° Northeast 518 596 39,000 -60 Level Denver Center
01:31PM 40.1203 -106.9110 61° Northeast 525 604 38,900  Descending Denver Center
01:32PM 40.1917 -106.7450 60° Northeast 519 597 39,000  Climbing Denver Center
01:33PM 40.2669 -106.5770 62° Northeast 526 605 38,900 -60 Descending Denver Center
01:34PM 40.3358 -106.4050 62° Northeast 526 605 38,900  Level Denver Center
01:35PM 40.4044 -106.2330 63° Northeast 526 605 38,900  Level Denver Center
01:36PM 40.4708 -106.0640 67° East 526 605 38,900  Level Denver Center
01:37PM 40.5303 -105.8830 69° East 526 605 39,000  Climbing Denver Center
01:38PM 40.5775 -105.7210 70° East 526 605 38,900  Descending Denver Center
01:39PM 40.6283 -105.5350 70° East 532 612 39,000  Climbing Denver Center
01:40PM 40.6808 -105.3480 69° East 538 619 38,900 -60 Descending Denver Center
01:41PM 40.7350 -105.1580 70° East 544 626 38,900  Level Denver Center
01:42PM 40.7869 -104.9710 70° East 551 634 38,900  Level Denver Center
01:43PM 40.8425 -104.7630 70° East 551 634 38,900  Level Denver Center
01:44PM 40.8939 -104.5780 71° East 545 627 38,900  Level Denver Center
01:45PM 40.9408 -104.3950 71° East 534 615 38,900  Level Denver Center
01:46PM 40.9894 -104.2090 72° East 528 608 39,000  Climbing Denver Center
01:47PM 41.0336 -104.0260 71° East 528 608 38,900  Descending Denver Center
01:48PM 41.0817 -103.8400 71° East 528 608 39,000  Climbing Denver Center
01:49PM 41.1256 -103.6700 71° East 533 613 38,900 -60 Descending Denver Center
01:50PM 41.1808 -103.4610 72° East 538 619 38,900  Level Denver Center
01:51PM 41.2278 -103.2710 72° East 544 626 39,000  Climbing Denver Center
01:52PM 41.2744 -103.0800 71° East 544 626 39,000 -60 Level Denver Center
01:53PM 41.3194 -102.9070 71° East 544 626 38,900  Descending Denver Center
01:54PM 41.3731 -102.6960 73° East 555 639 39,000  Climbing Denver Center
01:55PM 41.4169 -102.5050 71° East 550 633 39,000  Level Denver Center
01:56PM 41.4664 -102.3110 72° East 545 627 39,000  Level Denver Center
01:57PM 41.5078 -102.1360 71° East 545 627 39,000  Level Denver Center
01:58PM 41.5550 -101.9470 73° East 550 633 39,000 -60 Level Denver Center
01:59PM 41.6047 -101.7330 73° East 545 627 38,900  Descending Denver Center
02:00PM 41.6489 -101.5410 72° East 550 633 39,000  Climbing Denver Center
02:01PM 41.6947 -101.3480 74° East 550 633 39,000 -60 Level Denver Center
02:02PM 41.7344 -101.1660 72° East 550 633 38,900 -60 Descending Denver Center
02:03PM 41.7853 -100.9560 72° East 550 633 38,900  Level Denver Center
02:04PM 41.8319 -100.7570 73° East 550 633 39,000  Climbing Denver Center
02:05PM 41.8761 -100.5580 74° East 550 633 38,900 -60 Descending Denver Center
02:06PM 41.9147 -100.3780 74° East 550 633 38,900  Level Denver Center
02:07PM 41.9633 -100.1560 74° East 550 633 38,900  Level Denver Center
02:08PM 42.0067 -99.9558 80° East 556 640 38,900  Level Denver Center
02:09PM 42.0325 -99.7517 79° East 551 634 39,000  Climbing Denver Center
02:10PM 42.0619 -99.5442 81° East 561 646 38,900  Descending Denver Center
02:12PM 42.1125 -99.1231 81° East 549 632 39,000  Climbing Minneapolis Center
02:13PM 42.1372 -98.9211 80° East 549 632 39,000  Level Minneapolis Center
02:14PM 42.1639 -98.7164 80° East 554 638 39,000  Level Minneapolis Center
02:15PM 42.1900 -98.5169 80° East 554 638 39,000  Level Minneapolis Center
02:16PM 42.2158 -98.3117 81° East 549 632 39,000 -60 Level Minneapolis Center
02:17PM 42.2394 -98.1061 81° East 554 638 38,900  Descending Minneapolis Center
02:18PM 42.2625 -97.9033 81° East 554 638 39,000  Climbing Minneapolis Center
02:19PM 42.2872 -97.7003 82° East 554 638 39,000  Level Minneapolis Center
02:20PM 42.3097 -97.4914 82° East 554 638 39,000 -60 Level Minneapolis Center
02:21PM 42.3314 -97.2881 82° East 554 638 38,900  Descending Minneapolis Center
02:22PM 42.3531 -97.0844 80° East 554 638 39,000  Climbing Minneapolis Center
02:23PM 42.3783 -96.8808 84° East 554 638 39,000 -60 Level Minneapolis Center
02:24PM 42.3922 -96.6936 81° East 554 638 38,900 -60 Descending Minneapolis Center
02:25PM 42.4150 -96.4869 83° East 554 638 38,900  Level Minneapolis Center
02:26PM 42.4356 -96.2631 83° East 548 631 38,900  Level Minneapolis Center
02:27PM 42.4550 -96.0614 82° East 548 631 38,900  Level Minneapolis Center
02:28PM 42.4761 -95.8628 83° East 539 620 38,900  Level Minneapolis Center
02:29PM 42.4950 -95.6581 83° East 539 620 38,900  Level Minneapolis Center
02:30PM 42.5136 -95.4533 83° East 539 620 38,900  Level Minneapolis Center
02:31PM 42.5317 -95.2514 82° East 539 620 38,900  Level Minneapolis Center
02:32PM 42.5514 -95.0464 83° East 539 620 38,900  Level Minneapolis Center
02:33PM 42.5689 -94.8414 83° East 539 620 38,900  Level Minneapolis Center
02:34PM 42.5906 -94.5994 84° East 539 620 38,900  Level Minneapolis Center
02:35PM 42.6047 -94.4167 88° East 539 620 38,900  Level Minneapolis Center
02:36PM 42.6106 -94.2139 95° East 539 620 38,900  Level Minneapolis Center
02:37PM 42.5972 -94.0136 93° East 534 615 38,900  Level Minneapolis Center
02:38PM 42.5897 -93.8106 94° East 534 615 38,900  Level Minneapolis Center
02:40PM 42.5639 -93.3111 94° East 521 600 38,900  Level Chicago Center
02:41PM 42.5539 -93.1103 94° East 521 600 38,900  Level Chicago Center
02:42PM 42.5436 -92.9122 95° East 526 605 38,900  Level Chicago Center
02:43PM 42.5308 -92.7114 94° East 521 600 38,900  Level Chicago Center
02:44PM 42.5197 -92.5136 94° East 526 605 38,900  Level Chicago Center
02:45PM 42.5083 -92.3131 94° East 521 600 38,900  Level Chicago Center
02:46PM 42.4986 -92.1183 95° East 526 605 38,900  Level Chicago Center
02:47PM 42.4867 -91.9178 95° East 526 605 38,900  Level Chicago Center
02:48PM 42.4742 -91.7203 96° East 526 605 38,900  Level Chicago Center
02:49PM 42.4611 -91.5394 95° East 526 605 38,900  Level Chicago Center
02:50PM 42.4478 -91.3450 94° East 526 605 38,900  Level Chicago Center
02:51PM 42.4367 -91.1475 95° East 526 605 38,900  Level Chicago Center
02:52PM 42.4228 -90.9531 96° East 521 600 38,900  Level Chicago Center
02:53PM 42.4086 -90.7558 95° East 521 600 38,900  Level Chicago Center
02:54PM 42.3961 -90.5617 94° East 521 600 38,900  Level Chicago Center
02:55PM 42.3856 -90.3703 94° East 521 600 38,900  Level Chicago Center
02:56PM 42.3747 -90.1508 94° East 521 600 38,900  Level Chicago Center
02:57PM 42.3636 -89.9597 96° East 521 600 38,900  Level Chicago Center
02:58PM 42.3497 -89.7908 95° East 515 593 38,900  Level Chicago Center
02:59PM 42.3397 -89.6364 95° East 515 593 38,900  Level Chicago Center
03:00PM 42.3256 -89.4033 95° East 521 600 38,900  Level Chicago Center
03:01PM 42.3128 -89.2150 96° East 516 594 38,900  Level Chicago Center
03:02PM 42.2978 -89.0186 94° East 516 594 38,900  Level Chicago Center
03:03PM 42.2867 -88.8167 95° East 516 594 38,900  Level Chicago Center
03:04PM 42.2731 -88.6258 95° East 502 578 38,900  Level Chicago Center
03:05PM 42.2592 -88.4325 95° East 502 578 38,900  Level Chicago Center
03:06PM 42.2472 -88.2419 97° East 502 578 38,900  Level Chicago Center
03:07PM 42.2306 -88.0514 87° East 508 585 38,900  Level Chicago Center
03:08PM 42.2386 -87.8606 80° East 508 585 38,900  Level Chicago Center
03:09PM 42.2575 -87.7086 78° East 516 594 38,900  Level Chicago Center
03:10PM 42.2917 -87.4861 79° East 511 588 38,900  Level Chicago Center
03:11PM 42.3175 -87.2972 80° East 505 581 38,900  Level Chicago Center
03:12PM 42.3411 -87.1053 81° East 505 581 38,900  Level Chicago Center
03:13PM 42.3642 -86.9161 80° East 505 581 38,900  Level Chicago Center
03:14PM 42.3894 -86.7269 79° East 505 581 38,900  Level Chicago Center
03:15PM 42.4161 -86.5344 81° East 505 581 38,900  Level Chicago Center
03:16PM 42.4383 -86.3450 81° East 505 581 38,900  Level Chicago Center
03:17PM 42.4622 -86.1497 89° East 505 581 38,900  Level Chicago Center
03:18PM 42.4650 -85.9553 91° East 511 588 38,900  Level Chicago Center
03:19PM 42.4611 -85.7556 92° East 516 594 38,900  Level Chicago Center
03:22PM 42.4506 -85.3086 91° East 537 618 38,900  Level Cleveland Center
03:23PM 42.4483 -85.1058 93° East 537 618 38,900  Level Cleveland Center
03:24PM 42.4414 -84.9056 92° East 537 618 38,900  Level Cleveland Center
03:25PM 42.4367 -84.6997 91° East 537 618 38,900  Level Cleveland Center
03:26PM 42.4331 -84.4994 92° East 537 618 38,900  Level Cleveland Center
03:27PM 42.4272 -84.2967 92° East 537 618 38,900  Level Cleveland Center
03:28PM 42.4211 -84.0936 91° East 537 618 38,900  Level Cleveland Center
03:29PM 42.4172 -83.8739 93° East 537 618 38,900  Level Cleveland Center
03:30PM 42.4103 -83.6739 93° East 537 618 38,900  Level Cleveland Center
03:31PM 42.4031 -83.4739 92° East 537 618 38,900  Level Cleveland Center
03:32PM 42.3975 -83.2656 92° East 542 624 38,900  Level Cleveland Center
03:33PM 42.3914 -83.0797 93° East 542 624 38,900  Level Cleveland Center
03:34PM 42.3831 -82.8769 92° East 547 629 38,900  Level Cleveland Center
03:35PM 42.3767 -82.6686 93° East 547 629 38,900  Level Cleveland Center
03:36PM 42.3697 -82.4633 93° East 547 629 38,900  Level Cleveland Center
03:37PM 42.3608 -82.2383 94° East 553 636 38,900  Level Cleveland Center
03:38PM 42.3508 -82.0553 93° East 548 631 38,900  Level Cleveland Center
03:39PM 42.3428 -81.8472 94° East 554 638 38,900  Level Cleveland Center
03:40PM 42.3325 -81.6336 94° East 560 644 38,900  Level Cleveland Center
03:41PM 42.3217 -81.4283 93° East 552 635 38,900  Level Cleveland Center
03:42PM 42.3125 -81.2150 94° East 562 647 38,900  Level Cleveland Center
03:43PM 42.3011 -80.9875 94° East 557 641 38,900  Level Cleveland Center
03:44PM 42.2892 -80.7853 93° East 551 634 38,900  Level Cleveland Center
03:45PM 42.2808 -80.5858 95° East 546 628 38,900  Level Cleveland Center
03:46PM 42.2683 -80.3894 94° East 530 610 39,000  Climbing Cleveland Center
03:47PM 42.2575 -80.1933 95° East 525 604 38,900 -60 Descending Cleveland Center
03:48PM 42.2439 -79.9914 94° East 537 618 38,900  Level Cleveland Center
03:49PM 42.2325 -79.7894 95° East 537 618 38,900  Level Cleveland Center
03:50PM 42.2203 -79.5878 95° East 537 618 38,900  Level Cleveland Center
03:51PM 42.2058 -79.3806 96° East 542 624 38,900  Level Cleveland Center
03:52PM 42.1911 -79.1792 104° East 542 624 38,900  Level Cleveland Center
03:53PM 42.1553 -78.9922 109° East 530 610 38,900  Level Cleveland Center
03:54PM 42.1089 -78.8086 108° East 516 594 39,000  Climbing Cleveland Center
03:55PM 42.0642 -78.6253 109° East 516 594 39,000 -60 Level Cleveland Center
03:56PM 42.0172 -78.4422 108° East 516 594 38,900 -60 Descending Cleveland Center
03:57PM 41.9719 -78.2594 108° East 516 594 38,900  Level Cleveland Center
03:58PM 41.9264 -78.0769 110° East 516 594 38,900  Level Cleveland Center
03:59PM 41.8492 -77.7906 110° East 506 582 38,900  Level New York Center
04:00PM 41.8014 -77.6131 109° East 507 583 39,000  Climbing New York Center
04:01PM 41.7533 -77.4303 109° East 515 593 39,000 -60 Level New York Center
04:02PM 41.7069 -77.2506 111° Southeast 515 593 38,900 -360 Descending New York Center
04:03PM 41.6544 -77.0675 109° East 520 598 38,400 -660 Descending New York Center
04:04PM 41.6078 -76.8828 111° Southeast 525 604 37,700 -840 Descending New York Center
04:05PM 41.5567 -76.7008 110° East 525 604 36,700 -1,020 Descending New York Center
04:06PM 41.5053 -76.5161 111° Southeast 525 604 35,700 -1,020 Descending New York Center
04:07PM 41.4553 -76.3403 109° East 519 597 34,700 -1,020 Descending New York Center
04:08PM 41.4075 -76.1592 111° Southeast 519 597 33,700 -1,140 Descending New York Center
04:09PM 41.3533 -75.9697 111° Southeast 512 589 32,500 -1,440 Descending New York Center
04:10PM 41.3064 -75.8058 111° Southeast 492 566 30,900 -1,800 Descending New York Center
04:11PM 41.2589 -75.6450 114° Southeast 470 541 28,900 -1,980 Descending New York Center
04:12PM 41.2067 -75.4922 114° Southeast 454 522 27,000 -1,920 Descending New York Center
04:13PM 41.1564 -75.3456 112° Southeast 447 514 25,100 -1,800 Descending New York Center
04:14PM 41.1119 -75.1992 117° Southeast 434 499 23,400 -1,080 Descending New York Center
04:15PM 41.0606 -75.0639 114° Southeast 423 487 23,000 -240 Descending New York Center
04:16PM 41.0136 -74.9261 104° East 417 480 23,000  Level New York Center
04:17PM 40.9853 -74.7761 81° East 412 474 23,000  Level New York Center
04:18PM 41.0028 -74.6286 61° Northeast 404 465 23,000  Level New York Center
04:19PM 41.0569 -74.4969 52° Northeast 388 447 23,000 -300 Level New York Center
04:20PM 41.1275 -74.3767 52° Northeast 395 455 22,500 -780 Descending New York Center
04:21PM 41.1953 -74.2619 95° East 395 455 21,500 -1,200 Descending New York Center
04:22PM 41.1850 -74.1208 145° Southeast 357 411 20,200 -1,260 Descending New York Center
04:23PM 41.1078 -74.0481 187° South 286 329 19,000 -660 Descending New York Center
04:24PM 41.0283 -74.0608 207° Southwest 251 289 19,000  Level New York Center
04:25PM 40.9603 -74.1069 207° Southwest 247 284 19,000  Level New York Center
04:26PM 40.8989 -74.1478 252° West 252 290 19,000  Level New York Center
04:27PM 40.8775 -74.2344 260° West 229 264 19,000  Level New York Center
04:28PM 40.8667 -74.3189 266° West 229 264 19,000  Level New York Center
04:29PM 40.8619 -74.4067 318° Northwest 240 276 19,000  Level New York Center
04:30PM 40.9122 -74.4669 22° Northeast 218 251 19,000  Level New York Center
04:31PM 40.9883 -74.4269 76° East 198 228 19,000  Level New York Center
04:32PM 41.0058 -74.3317 121° Southeast 221 254 19,000  Level New York Center
04:33PM 40.9569 -74.2247 125° Southeast 248 285 19,000  Level New York Center
04:34PM 40.9056 -74.1261 161° South 285 328 19,000  Level New York Center
04:35PM 40.8317 -74.0922 237° Southwest 283 326 19,000  Level New York Center
04:36PM 40.7942 -74.1672 297° West 204 235 19,000  Level New York Center
04:37PM 40.8269 -74.2511 302° West 159 183 19,000  Level New York Center
04:38PM 40.8642 -74.3297 306° West 201 231 19,000  Level New York Center
04:39PM 40.9056 -74.4061 351° North 236 272 19,000  Level New York Center
04:40PM 40.9761 -74.4208 75° East 238 274 19,000  Level New York Center
04:41PM 40.9981 -74.3122 123° Southeast 181 208 19,000  Level New York Center
04:42PM 40.9489 -74.2106 126° Southeast 209 241 19,000  Level New York Center
04:43PM 40.8956 -74.1147 173° South 253 291 19,000  Level New York Center
04:44PM 40.8231 -74.1028 252° West 260 299 19,000  Level New York Center
04:45PM 40.8019 -74.1867 299° West 156 180 19,000  Level New York Center
04:46PM 40.8389 -74.2736 307° West 161 185 19,000  Level New York Center
04:47PM 40.8803 -74.3472 310° West 207 238 19,000  Level New York Center
04:48PM 40.9261 -74.4183 20° North 238 274 19,000  Level New York Center
04:49PM 41.0000 -74.3833 101° East 323 372 19,000  Level New York TRACON
04:50PM 40.9833 -74.2667 120° Southeast 349 402 19,000  Level New York TRACON
04:51PM 40.9333 -74.1500 143° Southeast 363 418 19,000 -420 Level New York TRACON
04:52PM 40.8500 -74.0667 143° Southeast 351 404 18,200 -1,200 Descending New York TRACON
04:53PM 40.7667 -73.9833 143° Southeast 345 397 16,700 -1,500 Descending New York TRACON
04:54PM 40.7000 -73.9167 163° South 340 391 15,400 -1,440 Descending New York TRACON
04:55PM 40.6167 -73.8833 163° South 340 391 14,000 -1,020 Descending New York TRACON
04:56PM 40.5333 -73.8500 111° Southeast 336 387 13,400 -600 Descending New York TRACON
04:57PM 40.5000 -73.7333 101° East 347 399 12,800 -840 Descending New York TRACON
04:58PM 40.4833 -73.6167 57° Northeast 346 398 11,800 -1,440 Descending New York TRACON
04:59PM 40.5297 -73.5233 31° Northeast 290 334 9,800 -1,980 Descending New York Center
05:00PM 40.6017 -73.4661 25° Northeast 268 308 7,600 -1,740 Descending New York Center
05:01PM 40.6833 -73.4167 11° North 280 322 6,600 -960 Descending New York TRACON
05:02PM 40.7500 -73.4000 288° West 236 272 5,800 -1,200 Descending New York TRACON
05:03PM 40.7667 -73.4667 303° West 194 223 4,300 -1,320 Descending New York TRACON
05:04PM 40.8000 -73.5333 270° West 193 222 3,200 -960 Descending New York TRACON
05:05PM 40.8000 -73.6000 237° Southwest 202 232 2,400 -600 Descending New York TRACON
05:06PM 40.7667 -73.6667 207° Southwest 197 227 2,100 -300 Descending New York TRACON
05:07PM 40.7167 -73.7000 217° Southwest 211 243 1,900 -600 Descending New York TRACON
05:08PM 40.6833 -73.7333 180° South 143 165 900 -660 Descending New York TRACON
05:09PM 40.6333 -73.7333 123° Southeast 155 178 600 120 Descending New York TRACON
05:10PM 40.6167 -73.7000 303° West 182 209 1,200 -120 Climbing New York TRACON
05:11PM 40.6333 -73.7333 303° West 117 135 400 -840 Descending New York TRACON